Time;durP1;ratioP1;P1;durP2;ratioP2;P2;SDS_P1;SDS_P2;PMS_P1;PMS_P2;Temp;Humidity;BMP_temperature;BMP_pressure;BME280_temperature;BME280_humidity;BME280_pressure;Samples;Min_cycle;Max_cycle;Signal;HPM_P1;HPM_P2
2022/07/06 00:01:04;;;;;;;2.30;2.10;;;21.30;42.70;;;;;;20599;6751;309102;-86
2022/07/06 00:03:39;;;;;;;2.53;2.13;;;21.40;42.70;;;;;;20877;6755;117925;-87
2022/07/06 00:06:17;;;;;;;2.20;2.00;;;21.10;43.10;;;;;;20752;6787;120234;-86
2022/07/06 00:08:51;;;;;;;2.20;2.10;;;21.00;43.80;;;;;;20816;6770;117702;-86
2022/07/06 00:11:27;;;;;;;5.07;2.07;;;20.80;43.20;;;;;;20733;6778;117706;-86
2022/07/06 00:14:02;;;;;;;3.83;2.30;;;20.60;43.40;;;;;;20508;6790;279262;-86
2022/07/06 00:16:38;;;;;;;2.30;2.10;;;21.00;43.50;;;;;;20527;6790;306823;-86
2022/07/06 00:19:14;;;;;;;2.00;1.90;;;21.40;42.90;;;;;;20513;6794;311232;-86
2022/07/06 00:21:49;;;;;;;2.43;2.17;;;21.60;42.50;;;;;;20658;6798;117638;-86
2022/07/06 00:24:25;;;;;;;2.73;2.03;;;21.40;42.40;;;;;;20653;6749;306495;-86
2022/07/06 00:27:00;;;;;;;2.40;2.10;;;21.50;42.50;;;;;;20821;6764;117328;-86
2022/07/06 00:29:36;;;;;;;2.10;2.00;;;21.30;42.50;;;;;;20601;6764;310444;-86
2022/07/06 00:32:11;;;;;;;2.20;2.10;;;21.40;42.60;;;;;;20738;6759;120738;-86
2022/07/06 00:34:48;;;;;;;2.63;2.27;;;21.30;42.70;;;;;;20660;6748;305084;-86
2022/07/06 00:37:24;;;;;;;2.20;2.07;;;21.30;43.00;;;;;;20969;6720;116847;-85
2022/07/06 00:40:00;;;;;;;2.10;2.00;;;21.10;42.90;;;;;;20855;6746;117796;-86
2022/07/06 00:42:41;;;;;;;2.35;2.20;;;20.90;42.90;;;;;;20569;6720;278830;-86
2022/07/06 00:45:18;;;;;;;2.83;2.17;;;21.40;43.00;;;;;;20648;6747;307563;-86
2022/07/06 00:47:53;;;;;;;2.40;2.20;;;21.40;43.00;;;;;;20952;6720;118026;-86
2022/07/06 00:50:29;;;;;;;2.40;2.20;;;21.20;43.00;;;;;;20958;6720;117906;-86
2022/07/06 00:53:05;;;;;;;3.80;1.90;;;20.90;43.30;;;;;;20971;6720;121820;-86
2022/07/06 00:55:40;;;;;;;3.53;2.30;;;20.60;43.50;;;;;;20743;6720;303293;-86
2022/07/06 00:58:15;;;;;;;2.50;2.30;;;20.80;43.60;;;;;;20623;6747;338839;-86
2022/07/06 01:00:51;;;;;;;2.40;2.20;;;21.10;43.10;;;;;;20913;6720;116903;-87
2022/07/06 01:03:27;;;;;;;2.40;2.30;;;21.00;43.10;;;;;;20760;6720;305628;-86
2022/07/06 01:06:02;;;;;;;2.40;2.30;;;21.10;43.20;;;;;;20947;6720;118890;-87
2022/07/06 01:08:39;;;;;;;2.67;2.47;;;21.00;43.90;;;;;;20659;6747;308457;-86
2022/07/06 01:11:14;;;;;;;2.83;2.07;;;21.00;43.20;;;;;;20884;6720;120163;-86
2022/07/06 01:13:50;;;;;;;2.30;2.03;;;20.80;43.20;;;;;;20936;6720;150768;-86
2022/07/06 01:16:25;;;;;;;2.70;2.50;;;20.60;43.70;;;;;;20655;6748;307513;-86
2022/07/06 01:19:01;;;;;;;2.97;2.20;;;20.80;43.50;;;;;;20753;6720;308007;-86
2022/07/06 01:21:40;;;;;;;2.10;2.00;;;21.10;43.40;;;;;;20873;6720;116991;-87
2022/07/06 01:24:15;;;;;;;2.17;1.98;;;20.90;43.40;;;;;;20670;6740;305358;-86
2022/07/06 01:26:51;;;;;;;2.70;2.20;;;21.00;43.60;;;;;;20908;6740;116853;-86
2022/07/06 01:29:26;;;;;;;3.17;2.53;;;20.90;43.70;;;;;;20850;6750;123144;-86
2022/07/06 01:32:02;;;;;;;2.90;2.70;;;20.50;43.90;;;;;;20605;6735;305998;-86
2022/07/06 01:34:38;;;;;;;2.57;2.47;;;20.70;43.70;;;;;;20936;6735;118948;-85
2022/07/06 01:37:13;;;;;;;3.70;2.20;;;20.50;43.70;;;;;;20784;6777;117141;-87
2022/07/06 01:39:49;;;;;;;2.67;2.47;;;20.30;44.20;;;;;;20663;6752;278091;-86
2022/07/06 01:42:24;;;;;;;3.22;2.58;;;20.40;44.00;;;;;;20585;6735;338424;-86
2022/07/06 01:45:00;;;;;;;2.40;2.20;;;20.80;43.80;;;;;;20907;6735;118902;-86
2022/07/06 01:47:36;;;;;;;3.30;2.20;;;20.60;43.60;;;;;;20864;6750;121739;-89
2022/07/06 01:50:11;;;;;;;2.40;2.10;;;20.20;44.00;;;;;;20792;6762;116924;-86
2022/07/06 01:52:48;;;;;;;2.83;2.50;;;20.20;44.70;;;;;;20531;6750;309906;-88
2022/07/06 01:55:23;;;;;;;2.80;2.60;;;20.20;44.60;;;;;;20954;6720;116930;-87
2022/07/06 01:57:59;;;;;;;3.53;2.43;;;20.10;44.40;;;;;;20943;6720;117373;-86
2022/07/06 02:00:34;;;;;;;2.73;2.53;;;19.90;44.70;;;;;;20765;6720;307109;-86
2022/07/06 02:03:10;;;;;;;4.17;2.30;;;20.10;44.40;;;;;;20736;6747;284188;-86
2022/07/06 02:05:45;;;;;;;2.57;2.40;;;20.50;44.10;;;;;;20789;6732;277347;-86
2022/07/06 02:08:21;;;;;;;2.50;2.33;;;20.70;43.40;;;;;;20979;6732;117341;-85
2022/07/06 02:10:57;;;;;;;2.62;2.42;;;20.50;43.60;;;;;;20749;6733;335167;-86
2022/07/06 02:13:32;;;;;;;2.50;2.30;;;20.60;43.80;;;;;;20899;6762;116217;-86
2022/07/06 02:16:08;;;;;;;2.07;1.97;;;20.30;43.90;;;;;;20829;6777;119391;-85
2022/07/06 02:18:43;;;;;;;2.87;2.30;;;20.00;44.40;;;;;;20718;6749;281836;-86
2022/07/06 02:21:19;;;;;;;2.40;2.20;;;20.20;44.50;;;;;;20632;6753;284746;-85
2022/07/06 02:23:55;;;;;;;2.60;2.40;;;20.70;43.40;;;;;;20672;6761;277342;-86
2022/07/06 02:26:31;;;;;;;2.25;2.15;;;20.70;43.30;;;;;;20639;6777;307831;-85
2022/07/06 02:29:07;;;;;;;2.77;2.27;;;21.00;43.20;;;;;;20681;6754;276745;-85
2022/07/06 02:31:43;;;;;;;4.97;2.40;;;20.90;43.10;;;;;;20762;6757;117486;-86
2022/07/06 02:34:18;;;;;;;2.70;2.37;;;20.60;43.50;;;;;;20833;6775;119576;-86
2022/07/06 02:36:54;;;;;;;2.50;1.90;;;20.20;44.20;;;;;;20852;6756;117049;-86
2022/07/06 02:39:30;;;;;;;2.57;2.20;;;19.60;45.20;;;;;;20855;6756;117442;-93
2022/07/06 02:42:06;;;;;;;2.30;2.20;;;19.60;45.20;;;;;;20686;6756;118087;-86
2022/07/06 02:44:41;;;;;;;2.40;2.30;;;19.40;45.60;;;;;;20850;6772;117101;-86
2022/07/06 02:47:17;;;;;;;2.63;2.30;;;19.20;45.90;;;;;;20885;6776;117454;-85
2022/07/06 02:49:52;;;;;;;2.00;1.90;;;19.10;46.20;;;;;;20880;6771;117886;-86
2022/07/06 02:52:28;;;;;;;3.50;2.13;;;19.00;46.40;;;;;;20727;6760;116881;-86
2022/07/06 02:55:04;;;;;;;2.77;2.33;;;19.00;46.60;;;;;;20633;6771;281053;-86
2022/07/06 02:57:39;;;;;;;5.10;2.43;;;19.30;46.60;;;;;;20868;6762;116113;-85
2022/07/06 03:00:16;;;;;;;3.37;2.47;;;19.40;46.40;;;;;;20835;6758;116938;-86
2022/07/06 03:02:51;;;;;;;2.53;2.43;;;19.20;46.30;;;;;;20711;6762;120524;-86
2022/07/06 03:05:26;;;;;;;2.62;2.20;;;19.10;46.40;;;;;;20675;6753;307178;-85
2022/07/06 03:08:02;;;;;;;2.30;2.20;;;19.40;46.00;;;;;;20883;6755;120885;-86
2022/07/06 03:10:38;;;;;;;2.13;2.03;;;19.40;45.90;;;;;;20899;6736;119059;-87
2022/07/06 03:13:15;;;;;;;4.17;2.30;;;19.00;46.80;;;;;;20903;6736;117030;-89
2022/07/06 03:15:50;;;;;;;3.70;2.60;;;19.00;46.20;;;;;;20685;6738;306347;-87
2022/07/06 03:18:26;;;;;;;2.70;2.50;;;19.30;45.80;;;;;;20864;6753;117318;-87
2022/07/06 03:21:03;;;;;;;2.57;2.47;;;19.10;45.80;;;;;;20813;6753;119084;-84
2022/07/06 03:23:40;;;;;;;2.63;2.20;;;19.00;46.30;;;;;;20899;6747;117024;-85
2022/07/06 03:26:16;;;;;;;2.83;2.60;;;19.00;46.30;;;;;;20879;6747;123365;-84
2022/07/06 03:28:51;;;;;;;2.70;2.50;;;18.80;46.60;;;;;;20656;6753;307484;-84
2022/07/06 03:31:27;;;;;;;2.57;2.47;;;19.20;46.70;;;;;;20803;6753;119699;-84
2022/07/06 03:34:03;;;;;;;2.43;2.23;;;19.10;46.60;;;;;;20839;6753;117445;-84
2022/07/06 03:36:40;;;;;;;2.73;2.63;;;19.10;46.50;;;;;;20872;6753;117040;-85
2022/07/06 03:39:16;;;;;;;3.03;2.30;;;18.90;46.70;;;;;;20921;6735;117400;-85
2022/07/06 03:41:51;;;;;;;4.53;2.50;;;18.80;46.90;;;;;;20797;6750;122998;-85
2022/07/06 03:44:27;;;;;;;3.22;2.50;;;18.80;47.00;;;;;;20712;6746;275977;-85
2022/07/06 03:47:03;;;;;;;2.60;2.37;;;19.10;46.90;;;;;;20913;6753;117587;-84
2022/07/06 03:49:38;;;;;;;3.20;2.90;;;19.20;46.60;;;;;;20651;6754;307252;-84
2022/07/06 03:52:14;;;;;;;2.87;2.60;;;19.50;45.90;;;;;;20565;6738;277888;-84
2022/07/06 03:54:51;;;;;;;2.60;2.40;;;19.80;45.50;;;;;;20645;6756;307733;-85
2022/07/06 03:57:26;;;;;;;2.47;2.27;;;20.10;44.50;;;;;;20909;6756;116894;-84
2022/07/06 04:00:02;;;;;;;5.10;2.50;;;19.90;44.80;;;;;;20908;6745;117473;-84
2022/07/06 04:02:38;;;;;;;2.80;2.60;;;19.50;45.30;;;;;;20570;6745;280267;-85
2022/07/06 04:05:13;;;;;;;2.80;2.60;;;19.70;45.30;;;;;;20661;6760;306482;-85
2022/07/06 04:07:49;;;;;;;3.40;2.57;;;20.00;44.70;;;;;;20860;6756;120227;-84
2022/07/06 04:10:24;;;;;;;2.33;2.20;;;19.90;44.80;;;;;;20911;6751;117225;-84
2022/07/06 04:13:01;;;;;;;2.75;2.55;;;19.90;45.30;;;;;;20500;6822;279044;-85
2022/07/06 04:15:36;;;;;;;2.83;2.62;;;19.80;45.20;;;;;;20695;6750;331105;-85
2022/07/06 04:18:13;;;;;;;2.90;2.73;;;20.10;44.40;;;;;;20829;6750;117115;-85
2022/07/06 04:20:48;;;;;;;3.47;2.70;;;20.00;44.30;;;;;;20678;6735;277202;-86
2022/07/06 04:23:24;;;;;;;3.00;2.80;;;20.20;44.40;;;;;;20641;6773;300253;-86
2022/07/06 04:25:59;;;;;;;3.23;2.93;;;20.40;43.60;;;;;;20652;6758;310065;-87
2022/07/06 04:28:35;;;;;;;2.75;2.55;;;20.60;43.20;;;;;;20663;6752;287494;-87
2022/07/06 04:31:14;;;;;;;3.00;2.70;;;20.80;43.40;;;;;;20577;6760;308772;-86
2022/07/06 04:33:46;;;;;;;3.03;2.80;;;20.90;42.80;;;;;;20633;6762;280402;-85
2022/07/06 04:36:22;;;;;;;3.97;2.83;;;21.10;43.00;;;;;;20578;6773;278874;-87
2022/07/06 04:39:01;;;;;;;2.40;2.30;;;21.00;43.20;;;;;;20731;6799;117755;-86
2022/07/06 04:41:34;;;;;;;3.17;2.87;;;20.80;43.30;;;;;;20836;6753;116986;-86
2022/07/06 04:44:09;;;;;;;2.67;2.47;;;20.30;43.80;;;;;;20557;6783;311004;-86
2022/07/06 04:46:46;;;;;;;2.70;2.60;;;20.50;44.10;;;;;;20549;6793;337332;-85
2022/07/06 04:49:22;;;;;;;2.90;2.80;;;20.80;43.80;;;;;;20670;6750;279826;-87
2022/07/06 04:51:57;;;;;;;2.87;2.67;;;21.00;43.50;;;;;;20541;6743;279560;-85
2022/07/06 04:54:33;;;;;;;3.00;2.80;;;21.20;43.20;;;;;;20810;6773;120229;-85
2022/07/06 04:57:08;;;;;;;2.67;2.53;;;20.90;43.40;;;;;;20896;6754;116286;-85
2022/07/06 04:59:45;;;;;;;2.50;2.40;;;20.30;44.60;;;;;;20848;6754;118788;-84
2022/07/06 05:02:20;;;;;;;2.60;2.40;;;20.20;44.40;;;;;;20732;6788;117459;-85
2022/07/06 05:04:56;;;;;;;2.67;2.47;;;20.00;44.90;;;;;;20931;6752;116859;-83
2022/07/06 05:07:43;;;;;;;3.62;2.90;;;19.90;45.20;;;;;;20672;6767;276427;-84
2022/07/06 05:10:09;;;;;;;3.12;2.87;;;20.70;44.60;;;;;;20566;6767;337954;-82
2022/07/06 05:12:45;;;;;;;3.20;2.90;;;20.60;44.20;;;;;;20701;6782;120364;-85
2022/07/06 05:15:22;;;;;;;3.67;2.42;;;20.60;44.30;;;;;;20694;6753;307030;-85
2022/07/06 05:17:57;;;;;;;2.80;2.60;;;20.70;44.50;;;;;;20673;6766;306346;-86
2022/07/06 05:20:33;;;;;;;2.70;2.60;;;21.00;44.60;;;;;;20708;6751;283620;-85
2022/07/06 05:23:09;;;;;;;3.20;2.90;;;21.40;44.10;;;;;;20737;6746;276860;-83
2022/07/06 05:25:45;;;;;;;3.70;2.70;;;21.40;44.10;;;;;;20743;6742;275989;-85
2022/07/06 05:28:20;;;;;;;3.10;2.80;;;21.50;44.60;;;;;;20874;6744;117436;-85
2022/07/06 05:30:56;;;;;;;5.73;2.87;;;21.30;44.80;;;;;;20624;6754;312011;-84
2022/07/06 05:33:32;;;;;;;2.70;2.60;;;21.30;44.80;;;;;;20891;6746;120888;-85
2022/07/06 05:36:07;;;;;;;3.57;3.00;;;21.10;45.00;;;;;;20845;6753;117619;-85
2022/07/06 05:38:43;;;;;;;3.00;2.80;;;20.80;45.40;;;;;;20666;6750;276957;-85
2022/07/06 05:41:19;;;;;;;3.25;2.78;;;21.30;44.80;;;;;;20645;6738;339387;-85
2022/07/06 05:43:55;;;;;;;2.83;2.63;;;21.30;44.80;;;;;;20660;6741;309077;-85
2022/07/06 05:46:40;;;;;;;3.07;2.83;;;21.50;44.60;;;;;;20885;6740;117118;-86
2022/07/06 05:52:01;;;;;;;3.30;3.00;;;21.10;45.10;;;;;;20586;6740;310363;-86
2022/07/06 05:54:37;;;;;;;3.47;2.80;;;21.30;45.10;;;;;;20673;6736;282428;-86
2022/07/06 05:57:12;;;;;;;2.93;2.73;;;21.60;44.70;;;;;;20636;6751;277305;-88
2022/07/06 05:59:48;;;;;;;4.07;2.60;;;21.90;44.60;;;;;;20692;6730;335753;-86
2022/07/06 06:02:24;;;;;;;2.77;2.57;;;22.10;43.90;;;;;;20745;6730;122638;-87
2022/07/06 06:05:00;;;;;;;2.40;2.00;;;22.10;44.10;;;;;;20876;6758;119091;-88
2022/07/06 06:07:36;;;;;;;2.33;2.17;;;22.10;44.50;;;;;;20921;6735;117370;-86
2022/07/06 06:10:11;;;;;;;2.23;1.80;;;22.30;44.40;;;;;;20886;6749;117321;-85
2022/07/06 06:12:47;;;;;;;2.60;2.40;;;22.60;45.00;;;;;;20720;6749;121476;-88
2022/07/06 06:15:23;;;;;;;2.20;2.10;;;22.80;43.80;;;;;;20860;6755;117735;-89
2022/07/06 06:17:59;;;;;;;4.10;2.20;;;23.90;43.60;;;;;;20892;6742;117252;-86
2022/07/06 06:20:34;;;;;;;3.73;2.30;;;23.90;43.50;;;;;;20693;6742;307475;-87
2022/07/06 06:23:20;;;;;;;3.33;2.00;;;25.00;40.70;;;;;;20954;6734;117474;-86
2022/07/06 06:25:46;;;;;;;3.00;2.70;;;26.00;41.10;;;;;;20677;6757;306003;-86
2022/07/06 06:28:21;;;;;;;2.00;1.90;;;27.00;36.60;;;;;;20876;6772;116563;-86
2022/07/06 06:30:57;;;;;;;2.30;2.10;;;27.60;36.80;;;;;;20649;6768;280452;-87
2022/07/06 06:33:35;;;;;;;2.40;2.30;;;28.40;34.20;;;;;;20938;6760;117596;-86
2022/07/06 06:36:10;;;;;;;2.10;1.90;;;29.00;34.80;;;;;;20956;6760;117336;-86
2022/07/06 06:38:48;;;;;;;2.40;2.00;;;29.20;34.70;;;;;;20768;6742;279601;-86
2022/07/06 06:41:23;;;;;;;2.60;2.40;;;29.90;31.70;;;;;;20644;6774;308624;-86
2022/07/06 06:44:00;;;;;;;1.90;1.80;;;30.60;30.10;;;;;;20873;6755;118909;-84
2022/07/06 06:46:35;;;;;;;2.37;2.17;;;30.70;31.10;;;;;;20569;6781;307710;-87
2022/07/06 06:49:17;;;;;;;2.37;2.17;;;30.90;29.70;;;;;;20845;6785;119858;-83
2022/07/06 06:51:52;;;;;;;3.42;2.45;;;30.90;30.40;;;;;;20509;6800;310185;-84
2022/07/06 06:54:29;;;;;;;2.93;2.17;;;31.10;29.10;;;;;;20801;6788;118190;-87
2022/07/06 06:57:05;;;;;;;4.43;1.77;;;31.00;29.90;;;;;;20857;6783;117087;-84
2022/07/06 06:59:42;;;;;;;2.13;1.97;;;30.80;30.50;;;;;;20853;6783;118053;-83
2022/07/06 07:02:17;;;;;;;3.00;1.77;;;30.80;30.70;;;;;;20680;6783;122632;-84
2022/07/06 07:04:53;;;;;;;2.20;2.10;;;30.90;30.90;;;;;;20698;6754;278928;-84
2022/07/06 07:07:30;;;;;;;2.27;2.17;;;31.50;29.20;;;;;;20706;6754;278627;-83
2022/07/06 07:10:06;;;;;;;2.30;2.10;;;32.20;28.60;;;;;;20663;6772;275928;-84
2022/07/06 07:12:48;;;;;;;2.22;2.03;;;32.60;28.10;;;;;;20559;6772;326271;-83
2022/07/06 07:15:23;;;;;;;3.40;2.00;;;32.80;28.00;;;;;;20799;6788;116808;-84
2022/07/06 07:17:59;;;;;;;2.20;2.00;;;32.60;28.50;;;;;;20896;6764;118314;-83
2022/07/06 07:20:37;;;;;;;3.10;2.17;;;32.30;28.80;;;;;;20669;6779;305558;-83
2022/07/06 07:23:24;;;;;;;4.60;2.00;;;32.40;28.20;;;;;;20922;6764;113224;-83
2022/07/06 07:26:01;;;;;;;2.30;2.20;;;32.20;28.60;;;;;;20515;6784;310660;-85
2022/07/06 07:28:38;;;;;;;3.17;2.93;;;32.10;28.20;;;;;;20541;6844;309670;-85
2022/07/06 07:31:13;;;;;;;2.10;2.00;;;32.10;27.80;;;;;;20831;6775;67174;-85
2022/07/06 07:33:49;;;;;;;1.97;1.87;;;31.80;28.50;;;;;;20813;6831;117171;-85
2022/07/06 07:36:31;;;;;;;1.93;1.80;;;31.30;28.90;;;;;;20838;6790;113699;-84
2022/07/06 07:39:08;;;;;;;2.35;1.90;;;30.90;29.30;;;;;;20601;6840;337211;-84
2022/07/06 07:41:43;;;;;;;1.90;1.80;;;31.00;29.40;;;;;;20851;6769;120720;-84
2022/07/06 07:44:19;;;;;;;2.00;1.90;;;30.90;29.40;;;;;;20876;6763;116873;-84
2022/07/06 07:46:55;;;;;;;2.33;2.23;;;30.60;29.50;;;;;;20814;6790;117382;-84
2022/07/06 07:49:33;;;;;;;3.77;1.90;;;30.30;29.20;;;;;;20897;6822;66783;-84
2022/07/06 07:52:09;;;;;;;2.33;2.13;;;30.00;30.00;;;;;;20611;6763;117455;-84
2022/07/06 07:54:46;;;;;;;2.13;2.03;;;29.70;30.20;;;;;;20625;6831;118801;-84
2022/07/06 07:57:21;;;;;;;2.20;2.00;;;29.60;30.70;;;;;;20378;6831;277445;-84
2022/07/06 07:59:57;;;;;;;2.10;2.00;;;29.80;30.60;;;;;;20632;6790;307024;-84
2022/07/06 08:02:33;;;;;;;3.00;2.60;;;30.10;30.00;;;;;;20707;6790;117862;-84
2022/07/06 08:05:13;;;;;;;1.93;1.83;;;30.10;30.00;;;;;;20854;6790;116208;-84
2022/07/06 08:07:45;;;;;;;2.13;2.03;;;29.70;30.30;;;;;;20806;6790;69084;-84
2022/07/06 08:10:21;;;;;;;2.93;2.50;;;29.60;30.60;;;;;;20821;6831;117040;-84
2022/07/06 08:12:56;;;;;;;4.00;2.80;;;29.30;30.80;;;;;;20499;6870;307341;-84
2022/07/06 08:15:32;;;;;;;2.20;2.10;;;29.60;30.60;;;;;;20667;6799;305180;-84
2022/07/06 08:18:16;;;;;;;3.53;2.47;;;30.10;30.30;;;;;;20858;6762;116438;-84
2022/07/06 08:20:44;;;;;;;2.57;2.37;;;30.10;30.10;;;;;;20946;6740;113832;-85
2022/07/06 08:23:21;;;;;;;5.23;2.67;;;30.00;30.20;;;;;;20942;6740;121029;-85
2022/07/06 08:25:57;;;;;;;2.73;2.20;;;29.80;30.30;;;;;;20914;6740;117309;-85
2022/07/06 08:28:33;;;;;;;2.07;1.97;;;29.70;30.60;;;;;;20667;6754;279036;-85
2022/07/06 08:31:08;;;;;;;2.73;2.40;;;30.00;30.50;;;;;;20829;6752;116424;-85
2022/07/06 08:33:48;;;;;;;3.00;2.37;;;30.10;30.60;;;;;;20941;6736;117372;-85
2022/07/06 08:36:23;;;;;;;2.45;2.35;;;30.00;30.70;;;;;;20649;6736;314876;-85
2022/07/06 08:38:58;;;;;;;3.83;3.00;;;30.30;30.00;;;;;;20720;6736;305465;-86
2022/07/06 08:41:33;;;;;;;2.30;2.20;;;30.70;29.30;;;;;;20630;6736;312466;-85
2022/07/06 08:44:10;;;;;;;3.07;2.40;;;31.00;29.50;;;;;;20935;6736;117648;-86
2022/07/06 08:46:46;;;;;;;3.30;3.10;;;30.90;29.50;;;;;;20942;6736;117104;-85
2022/07/06 08:49:22;;;;;;;2.80;2.00;;;30.50;30.20;;;;;;20946;6736;118174;-86
2022/07/06 08:51:57;;;;;;;3.03;2.83;;;30.50;29.60;;;;;;20564;6736;337234;-85
2022/07/06 08:54:33;;;;;;;2.70;2.20;;;30.60;29.50;;;;;;20951;6736;116318;-85
2022/07/06 08:57:09;;;;;;;2.30;2.10;;;30.60;29.50;;;;;;20753;6736;278776;-85
2022/07/06 08:59:44;;;;;;;2.00;1.80;;;30.80;29.90;;;;;;20613;6773;307744;-85
2022/07/06 09:02:20;;;;;;;2.20;2.00;;;31.20;29.00;;;;;;20510;6774;279242;-85
2022/07/06 09:04:57;;;;;;;2.27;2.17;;;31.60;29.10;;;;;;20678;6760;277619;-86
2022/07/06 09:07:32;;;;;;;3.03;1.97;;;31.90;28.80;;;;;;20867;6754;116844;-86
2022/07/06 09:10:08;;;;;;;2.27;2.07;;;31.90;28.80;;;;;;20593;6784;300504;-86
2022/07/06 09:12:46;;;;;;;3.63;2.40;;;31.90;29.10;;;;;;20727;6756;116463;-86
2022/07/06 09:15:25;;;;;;;2.22;2.05;;;31.80;28.90;;;;;;20687;6756;305160;-85
2022/07/06 09:18:01;;;;;;;2.30;2.10;;;31.80;28.80;;;;;;20865;6812;120028;-85
2022/07/06 09:20:39;;;;;;;3.30;3.00;;;31.60;28.80;;;;;;20884;6756;117165;-85
2022/07/06 09:23:14;;;;;;;3.70;2.53;;;31.40;28.90;;;;;;20609;6826;334416;-86
2022/07/06 09:25:50;;;;;;;2.08;1.98;;;31.30;28.40;;;;;;20684;6759;336546;-85
2022/07/06 09:28:43;;;;;;;2.63;2.43;;;31.50;29.00;;;;;;20846;6758;118715;-89
2022/07/06 09:31:20;;;;;;;2.43;2.30;;;31.40;29.00;;;;;;20845;6773;117507;-86
2022/07/06 09:34:05;;;;;;;4.23;2.03;;;31.10;29.10;;;;;;20859;6778;118076;-87
2022/07/06 09:36:48;;;;;;;3.73;2.20;;;30.80;29.40;;;;;;20821;6778;118091;-86
2022/07/06 09:39:27;;;;;;;3.17;2.47;;;30.70;29.70;;;;;;20760;6804;117829;-86
2022/07/06 09:42:03;;;;;;;3.27;2.90;;;30.70;29.70;;;;;;20413;6805;312205;-86
2022/07/06 09:44:38;;;;;;;2.97;2.77;;;31.00;29.40;;;;;;20890;6769;116580;-85
2022/07/06 09:47:14;;;;;;;2.87;2.17;;;30.90;29.10;;;;;;20863;6769;119358;-85
2022/07/06 09:49:50;;;;;;;2.77;2.27;;;30.40;29.90;;;;;;20830;6788;117244;-84
2022/07/06 09:52:26;;;;;;;3.17;2.90;;;30.40;29.90;;;;;;20715;6789;118523;-85
2022/07/06 09:55:01;;;;;;;2.53;2.30;;;30.20;29.70;;;;;;20863;6770;117761;-89
2022/07/06 09:57:37;;;;;;;3.37;3.07;;;30.00;30.00;;;;;;20628;6769;304387;-85
2022/07/06 10:00:13;;;;;;;2.60;2.40;;;30.40;29.70;;;;;;20619;6771;307265;-86
2022/07/06 10:02:49;;;;;;;2.67;2.30;;;31.50;29.00;;;;;;20455;6773;309320;-86
2022/07/06 10:05:29;;;;;;;2.33;2.10;;;31.50;29.00;;;;;;20634;6775;277720;-84
2022/07/06 10:08:00;;;;;;;3.37;2.20;;;32.00;29.00;;;;;;20870;6755;117604;-86
2022/07/06 10:10:36;;;;;;;2.30;2.10;;;32.30;28.90;;;;;;20560;6819;292171;-86
2022/07/06 10:13:13;;;;;;;5.07;2.43;;;32.50;28.40;;;;;;20863;6768;116858;-85
2022/07/06 10:15:48;;;;;;;2.17;2.08;;;32.50;28.30;;;;;;20550;6776;298439;-86
2022/07/06 10:18:24;;;;;;;3.47;2.23;;;32.50;28.20;;;;;;20557;6793;278730;-86
2022/07/06 10:21:00;;;;;;;3.53;2.15;;;32.50;28.00;;;;;;20545;6775;319687;-86
2022/07/06 10:23:35;;;;;;;2.77;2.20;;;32.50;28.10;;;;;;20613;6758;307757;-86
2022/07/06 10:26:11;;;;;;;3.17;2.58;;;32.40;27.70;;;;;;20744;6782;120372;-85
2022/07/06 10:28:47;;;;;;;2.60;2.40;;;31.30;28.50;;;;;;20788;6778;118182;-85
2022/07/06 10:31:23;;;;;;;8.73;2.70;;;31.40;28.60;;;;;;20803;6759;117064;-85
2022/07/06 10:34:01;;;;;;;6.67;2.97;;;31.00;28.80;;;;;;20817;6771;116989;-85
2022/07/06 10:36:37;;;;;;;2.78;2.40;;;30.80;29.00;;;;;;20550;6783;310039;-85
2022/07/06 10:42:09;;;;;;;4.45;2.70;;;31.10;29.20;;;;;;20464;6782;331785;-85
2022/07/06 10:44:45;;;;;;;2.60;2.40;;;31.30;29.10;;;;;;20528;6826;280350;-84
2022/07/06 10:47:20;;;;;;;3.85;2.80;;;31.40;28.50;;;;;;20614;6785;305903;-86
2022/07/06 10:49:56;;;;;;;3.07;2.73;;;31.30;28.60;;;;;;20761;6775;117293;-84
2022/07/06 10:52:51;;;;;;;4.33;3.00;;;30.90;29.00;;;;;;20493;6771;283936;-83
2022/07/06 10:55:28;;;;;;;2.40;2.30;;;30.60;28.90;;;;;;20843;6775;117013;-86
2022/07/06 10:58:04;;;;;;;3.07;2.73;;;30.10;29.40;;;;;;20703;6745;306522;-84
2022/07/06 11:00:52;;;;;;;3.00;2.70;;;30.00;29.60;;;;;;20657;6760;279795;-84
2022/07/06 11:03:41;;;;;;;3.07;2.57;;;30.00;30.00;;;;;;20592;6775;278247;-85
2022/07/06 11:06:17;;;;;;;3.20;2.90;;;30.00;29.70;;;;;;20465;6805;317051;-82
2022/07/06 11:08:55;;;;;;;3.63;2.87;;;30.10;29.40;;;;;;20740;6820;120520;-84
2022/07/06 11:11:30;;;;;;;2.80;2.60;;;29.90;29.80;;;;;;20536;6786;290710;-84
2022/07/06 11:14:16;;;;;;;2.87;2.77;;;29.90;29.60;;;;;;20881;6741;118216;-86
2022/07/06 11:16:52;;;;;;;3.20;2.57;;;29.70;29.80;;;;;;20661;6797;307945;-86
2022/07/06 11:19:37;;;;;;;3.07;2.87;;;29.90;31.10;;;;;;20901;6756;117122;-86
2022/07/06 11:22:09;;;;;;;3.03;2.43;;;29.90;30.10;;;;;;20533;6756;290976;-86
2022/07/06 11:24:45;;;;;;;5.70;2.80;;;30.40;29.60;;;;;;20694;6755;279678;-87
2022/07/06 11:27:24;;;;;;;2.93;2.50;;;30.40;29.60;;;;;;20679;6756;278441;-86
2022/07/06 11:30:00;;;;;;;3.17;2.47;;;30.70;29.60;;;;;;20664;6756;307138;-87
2022/07/06 11:32:36;;;;;;;2.67;2.47;;;30.70;28.60;;;;;;20712;6756;118099;-87
2022/07/06 11:35:11;;;;;;;2.40;2.20;;;30.30;29.00;;;;;;20892;6756;116999;-87
2022/07/06 11:37:49;;;;;;;2.60;2.40;;;29.90;29.80;;;;;;20911;6756;117060;-87
2022/07/06 11:40:25;;;;;;;2.97;2.50;;;29.50;30.00;;;;;;20887;6756;117157;-87
2022/07/06 11:43:01;;;;;;;2.90;2.53;;;29.40;30.40;;;;;;20448;6812;308091;-88
2022/07/06 11:45:38;;;;;;;2.60;2.40;;;29.50;30.60;;;;;;20670;6741;308499;-88
2022/07/06 11:48:15;;;;;;;4.50;2.53;;;29.80;30.00;;;;;;20855;6741;117230;-87
2022/07/06 11:51:03;;;;;;;4.18;2.78;;;29.70;30.10;;;;;;20636;6741;307692;-86
2022/07/06 11:53:36;;;;;;;3.40;2.92;;;29.90;30.30;;;;;;20688;6741;288153;-88
2022/07/06 11:56:17;;;;;;;4.43;2.50;;;30.00;29.80;;;;;;20869;6741;117008;-85
2022/07/06 11:58:50;;;;;;;2.80;2.60;;;29.60;30.50;;;;;;20876;6741;117087;-85
2022/07/06 12:01:27;;;;;;;3.80;2.70;;;29.50;30.30;;;;;;20799;6741;116969;-86
2022/07/06 12:04:04;;;;;;;3.20;2.30;;;29.40;31.70;;;;;;20860;6741;117981;-86
2022/07/06 12:06:38;;;;;;;2.80;2.60;;;29.70;31.10;;;;;;20673;6741;310638;-86
2022/07/06 12:09:14;;;;;;;3.53;2.43;;;29.70;31.30;;;;;;20673;6741;306662;-86
2022/07/06 12:11:49;;;;;;;2.70;2.40;;;30.20;30.50;;;;;;20766;6741;117074;-85
2022/07/06 12:14:26;;;;;;;3.00;2.40;;;30.10;30.40;;;;;;20594;6770;306983;-85
2022/07/06 12:17:02;;;;;;;3.03;2.50;;;30.10;30.40;;;;;;20743;6740;305605;-85
2022/07/06 12:19:38;;;;;;;2.60;2.40;;;30.40;30.20;;;;;;20627;6758;315568;-86
2022/07/06 12:22:13;;;;;;;3.10;2.30;;;30.70;30.20;;;;;;20719;6743;117913;-87
2022/07/06 12:24:49;;;;;;;3.10;2.80;;;30.50;30.50;;;;;;20868;6758;115997;-88
2022/07/06 12:27:24;;;;;;;3.93;2.80;;;30.00;30.10;;;;;;20645;6760;322966;-90
2022/07/06 12:30:10;;;;;;;4.07;2.60;;;29.90;30.20;;;;;;20625;6754;309338;-90
2022/07/06 12:32:46;;;;;;;5.10;2.80;;;29.80;30.90;;;;;;20705;6736;117473;-87
2022/07/06 12:35:21;;;;;;;4.07;2.80;;;29.50;31.30;;;;;;20717;6736;278655;-87
2022/07/06 12:38:00;;;;;;;4.23;2.97;;;29.50;31.50;;;;;;20689;6736;305744;-87
2022/07/06 12:40:35;;;;;;;5.63;2.70;;;29.50;31.50;;;;;;20905;6736;117154;-85
2022/07/06 12:43:11;;;;;;;9.80;2.97;;;29.30;31.60;;;;;;20906;6736;117416;-85
2022/07/06 12:45:46;;;;;;;3.00;2.80;;;28.90;32.00;;;;;;20900;6736;117043;-85
2022/07/06 12:48:22;;;;;;;3.50;2.97;;;28.60;32.40;;;;;;20679;6736;276720;-85
2022/07/06 12:51:00;;;;;;;3.60;2.77;;;28.70;33.20;;;;;;20666;6736;280335;-85
2022/07/06 12:53:35;;;;;;;4.72;3.03;;;29.00;32.40;;;;;;20701;6736;307264;-85
2022/07/06 12:56:15;;;;;;;3.75;2.95;;;29.20;32.10;;;;;;20688;6736;430909;-84
2022/07/06 12:59:01;;;;;;;5.40;3.17;;;29.30;32.00;;;;;;20904;6736;116877;-84
2022/07/06 13:01:36;;;;;;;3.57;2.80;;;29.00;32.10;;;;;;20799;6736;116915;-85
2022/07/06 13:04:12;;;;;;;4.27;3.00;;;28.50;32.80;;;;;;20900;6736;117765;-85
2022/07/06 13:06:48;;;;;;;5.33;3.10;;;28.30;33.10;;;;;;20694;6736;276489;-85
2022/07/06 13:09:23;;;;;;;3.37;2.87;;;28.60;34.50;;;;;;20926;6736;118480;-85
2022/07/06 13:11:59;;;;;;;3.63;2.93;;;28.90;34.10;;;;;;20549;6736;302505;-85
2022/07/06 13:14:35;;;;;;;3.10;2.60;;;29.30;32.80;;;;;;20894;6736;117060;-85
2022/07/06 13:17:11;;;;;;;4.10;3.23;;;29.30;32.70;;;;;;20907;6736;117483;-84
2022/07/06 13:19:49;;;;;;;3.17;2.70;;;29.00;32.70;;;;;;20911;6736;116571;-84
2022/07/06 13:22:22;;;;;;;3.60;3.30;;;28.70;33.10;;;;;;20720;6736;121722;-84
2022/07/06 13:24:57;;;;;;;3.67;3.30;;;28.40;33.30;;;;;;20695;6736;275815;-85
2022/07/06 13:27:33;;;;;;;5.63;3.00;;;28.50;33.20;;;;;;20699;6736;276241;-85
2022/07/06 13:30:10;;;;;;;3.92;3.10;;;28.70;33.50;;;;;;20591;6759;304325;-85